KOTH

Southwest Oregon Regional Airport

North Bend, Oregon, USA
KOTH 141803Z 1418/1518 21030G39KT P6SM BKN060 FM141900 17015G25KT P6SM -RA BKN035 OVC050 WS020/19050KT FM142100 26015G25KT 4SM RA BR SCT015 BKN030 OVC050 FM150200 27015KT P6SM -SHRA SCT030 BKN050 FM150600 16005KT P6SM SCT060
Issued Valid From Valid To
Dec-14 @ 18:03 UTC
(4 hours ago)
Dec-14 @ 18:00 UTC
(4 hours ago)
Dec-15 @ 18:00 UTC
(in 20 hours)
Expired Click to View Dec-14 @ 18:00 to Dec-14 @ 19:00
KOTH 141803Z 1418/1518 21030G39KT P6SM BKN060
Wind Visibility Clouds
210° at 30 knots
 Gusting to 39 knots
Greater than 6 miles
  • Broken at 6,000' AGL
Expired Click to View Dec-14 @ 19:00 to Dec-14 @ 21:00
FM141900 17015G25KT P6SM -RA BKN035 OVC050 WS020/19050KT
Wind Visibility Clouds Conditions
170° at 15 knots
 Gusting to 25 knots
 Wind shear 2,000' AGL from 190° at 50 knots
Greater than 6 miles
  • Broken at 3,500' AGL
  • Overcast at 5,000' AGL
  • Light Rain
From Dec-14 @ 21:00 to Dec-15 @ 02:00
FM142100 26015G25KT 4SM RA BR SCT015 BKN030 OVC050
Wind Visibility Clouds Conditions
260° at 15 knots
 Gusting to 25 knots
4 miles
  • Scattered at 1,500' AGL
  • Broken at 3,000' AGL
  • Overcast at 5,000' AGL
  • Rain
  • Mist
From Dec-15 @ 02:00 to Dec-15 @ 06:00
FM150200 27015KT P6SM -SHRA SCT030 BKN050
Wind Visibility Clouds Conditions
270° at 15 knots Greater than 6 miles
  • Scattered at 3,000' AGL
  • Broken at 5,000' AGL
  • Light Rain
From Dec-15 @ 06:00 to Dec-15 @ 18:00
FM150600 16005KT P6SM SCT060
Wind Visibility Clouds
160° at 5 knots Greater than 6 miles
  • Scattered at 6,000' AGL
KOTH 141803Z 1418/1518 21030G39KT P6SM BKN060 FM141900 17015G25KT P6SM -RA BKN035 OVC050 WS020/19050KT FM142100 26015G25KT 4SM RA BR SCT015 BKN030 OVC050 FM150200 27015KT P6SM -SHRA SCT030 BKN050 FM150600 16005KT P6SM SCT060
Issued Dec-14 @ 18:03 UTC
(4 hours ago)
Valid From Dec-14 @ 18:00 UTC
(4 hours ago)
Valid To Dec-15 @ 18:00 UTC
(in 20 hours)
Dec-14 @ 18:00 - Dec-14 @ 19:00
Wind Visibility
210° at 30 knots
 Gusting to 39 knots
Greater than 6 miles
Clouds
  • Broken at 6,000' AGL
Dec-14 @ 19:00 - Dec-14 @ 21:00
Wind Visibility
170° at 15 knots
 Gusting to 25 knots
Greater than 6 miles
Clouds
  • Broken at 3,500' AGL
  • Overcast at 5,000' AGL
Conditions
  • Light Rain
From Dec-14 @ 21:00 - Dec-15 @ 02:00
Wind Visibility
260° at 15 knots
 Gusting to 25 knots
4 miles
Clouds
  • Scattered at 1,500' AGL
  • Broken at 3,000' AGL
  • Overcast at 5,000' AGL
Conditions
  • Rain
  • Mist
From Dec-15 @ 02:00 - Dec-15 @ 06:00
Wind Visibility
270° at 15 knots Greater than 6 miles
Clouds
  • Scattered at 3,000' AGL
  • Broken at 5,000' AGL
Conditions
  • Light Rain
From Dec-15 @ 06:00 - Dec-15 @ 18:00
Wind Visibility
160° at 5 knots Greater than 6 miles
Clouds
  • Scattered at 6,000' AGL